This is the latest recevied weather packets stored in our database for station/object KF0PEC-15. If no packets are shown the sender has not sent any weather packets the latest 10 day(s).
| Time | Temp. | Humidity | Pressure | Rain* | Wind** | Luminosity | Snow |
|---|---|---|---|---|---|---|---|
| 1788153099 | 61° F | 79% | 765.7 mmHg | 0.23 in | - | 0 W/m² | - |
| 1788152579 | 62° F | 77% | 765.3 mmHg | 0 in | - | 0 W/m² | - |
| 1788152049 | 62° F | 76% | 764.8 mmHg | 0 in | - | 0 W/m² | - |
| 1788151489 | 63° F | 74% | 764.2 mmHg | 0 in | - | 0 W/m² | - |
| 1788151009 | 63° F | 72% | 764.2 mmHg | 0 in | - | 0 W/m² | - |
| 1788150419 | 64° F | 72% | 763.9 mmHg | 0 in | - | 0 W/m² | - |
| 1788149903 | 64° F | 70% | 764 mmHg | 0.04 in | - | 0 W/m² | - |
| 1788149309 | 68° F | 63% | 762.9 mmHg | 0.03 in | - | 0 W/m² | - |
| 1788148779 | 70° F | 45% | 761.8 mmHg | 0 in | - | 0 W/m² | - |
| 1788148194 | 68° F | 50% | 762 mmHg | 0 in | - | 0 W/m² | - |
| 1788147604 | 69° F | 49% | 761.5 mmHg | 0 in | - | 0 W/m² | - |
| 1788147049 | 69° F | 48% | 761.5 mmHg | 0 in | - | 0 W/m² | - |
| 1788146489 | 70° F | 49% | 761.2 mmHg | 0 in | - | 0 W/m² | - |
| 1788145989 | 69° F | 47% | 761.1 mmHg | 0 in | - | 0 W/m² | - |
| 1788145469 | 69° F | 50% | 761.2 mmHg | 0 in | - | 0 W/m² | - |
| 1788144929 | 69° F | 52% | 761 mmHg | 0 in | - | 0 W/m² | - |
| 1788144379 | 68° F | 55% | 761.2 mmHg | 0 in | - | 0 W/m² | - |
| 1788143899 | 68° F | 54% | 760.9 mmHg | 0 in | - | 0 W/m² | - |
| 1788143379 | 67° F | 57% | 761.4 mmHg | 0 in | - | 0 W/m² | - |
| 1788142869 | 67° F | 59% | 761.4 mmHg | 0 in | - | 0 W/m² | - |
| 1788142304 | 67° F | 59% | 761.3 mmHg | 0 in | - | 0 W/m² | - |
| 1788141804 | 68° F | 58% | 761 mmHg | 0 in | - | 0 W/m² | - |
| 1788141264 | 68° F | 58% | 761 mmHg | 0 in | - | 8 W/m² | - |
| 1788140724 | 69° F | 57% | 760.7 mmHg | 0 in | - | 84 W/m² | - |
| 1788140159 | 69° F | 57% | 760.6 mmHg | 0 in | - | 150 W/m² | - |
* Rain latest hour (hover to see other rain measurements)
** Current wind speed in m/s (hover to see current wind gust speed)